Time;durP1;ratioP1;P1;durP2;ratioP2;P2;SDS_P1;SDS_P2;PMS_P1;PMS_P2;Temp;Humidity;BMP_temperature;BMP_pressure;BME280_temperature;BME280_humidity;BME280_pressure;Samples;Min_cycle;Max_cycle;Signal;HPM_P1;HPM_P2
2022/02/03 00:00:01;;;;;;;;;;;;;;;4.89;70.41;100291.78;5097422;28;19912;-69
2022/02/03 00:02:45;;;;;;;;;;;;;;;4.87;70.76;100301.63;5099266;28;20534;-69
2022/02/03 00:05:16;;;;;;;;;;;;;;;4.86;70.82;100307.06;5100245;28;19934;-69
2022/02/03 00:24:11;;;;;;;;;;;;;;;4.92;70.37;100355.34;5098796;28;19934;-68
2022/02/03 00:26:32;;;;;;;;;;;;;;;4.85;70.69;100356.69;5102555;28;20355;-68
2022/02/03 00:28:59;;;;;;;;;;;;;;;4.82;70.46;100367.50;5104806;28;19912;-68
2022/02/03 00:31:38;;;;;;;;;;;;;;;4.82;70.63;100361.34;5102428;28;20412;-69
2022/02/03 00:34:19;;;;;;;;;;;;;;;4.88;70.36;100371.56;5099825;28;19915;-69
2022/02/03 00:50:26;;;;;;;;;;;;;;;4.65;71.15;100415.53;5112618;28;19969;-66
2022/02/03 00:52:51;;;;;;;;;;;;;;;4.60;71.26;100420.28;5105091;28;19912;-66
2022/02/03 00:55:17;;;;;;;;;;;;;;;4.82;70.36;100427.75;5097803;28;19915;-66
2022/02/03 00:57:46;;;;;;;;;;;;;;;4.70;70.52;100424.06;5109323;28;19916;-66
2022/02/03 01:00:13;;;;;;;;;;;;;;;4.65;70.61;100434.13;5106873;27;20354;-66
2022/02/03 01:02:46;;;;;;;;;;;;;;;4.67;70.49;100438.41;5109495;28;19912;-67
2022/02/03 01:05:13;;;;;;;;;;;;;;;4.64;70.67;100443.03;5103301;28;19912;-70
2022/02/03 01:07:43;;;;;;;;;;;;;;;4.64;70.65;100445.69;5094348;28;19920;-70
2022/02/03 01:10:19;;;;;;;;;;;;;;;4.60;70.59;100453.00;5105099;28;19922;-68
2022/02/03 01:15:32;;;;;;;;;;;;;;;4.55;70.92;100444.47;5108940;28;19916;-69
2022/02/03 01:44:53;;;;;;;;;;;;;;;4.35;72.44;100462.53;5108465;28;19922;-66
2022/02/03 01:47:35;;;;;;;;;;;;;;;4.30;72.45;100459.31;5109661;28;19919;-66
2022/02/03 01:52:35;;;;;;;;;;;;;;;4.23;72.65;100469.44;5105291;28;20432;-68
2022/02/03 01:55:02;;;;;;;;;;;;;;;4.29;72.57;100478.88;5093835;28;19943;-69
2022/02/03 01:57:30;;;;;;;;;;;;;;;4.26;72.34;100481.69;5093344;28;20334;-69
2022/02/03 01:59:59;;;;;;;;;;;;;;;4.21;72.69;100491.72;5093863;27;19918;-69
2022/02/03 02:02:28;;;;;;;;;;;;;;;4.19;72.87;100496.25;5109946;28;19911;-67
2022/02/03 02:05:05;;;;;;;;;;;;;;;4.21;72.43;100495.25;5105708;28;19951;-67
2022/02/03 02:07:48;;;;;;;;;;;;;;;4.12;72.89;100493.13;5107510;28;19919;-66
2022/02/03 02:14:07;;;;;;;;;;;;;;;4.12;72.72;100506.38;5097569;28;19960;-64
2022/02/03 02:19:20;;;;;;;;;;;;;;;4.02;73.57;100526.44;5066473;28;19958;-66
2022/02/03 02:44:15;;;;;;;;;;;;;;;3.88;72.63;100581.25;5091932;28;19923;-66
2022/02/03 02:46:41;;;;;;;;;;;;;;;3.88;72.25;100578.59;5106188;28;19912;-67
2022/02/03 02:49:15;;;;;;;;;;;;;;;4.03;71.36;100580.38;5106095;28;19924;-66
2022/02/03 02:51:44;;;;;;;;;;;;;;;4.11;70.79;100580.78;5096297;28;20379;-67
2022/02/03 02:57:00;;;;;;;;;;;;;;;4.04;71.35;100590.03;5099216;28;19922;-66
2022/02/03 03:32:41;;;;;;;;;;;;;;;3.64;73.33;100628.53;5104445;28;19954;-69
2022/02/03 03:35:35;;;;;;;;;;;;;;;3.65;73.51;100629.41;5090892;28;19962;-68
2022/02/03 03:37:55;;;;;;;;;;;;;;;3.65;73.60;100642.66;5107348;28;19912;-68
2022/02/03 03:40:20;;;;;;;;;;;;;;;3.59;73.52;100635.91;5105692;28;20401;-68
2022/02/03 03:42:54;;;;;;;;;;;;;;;3.61;73.58;100643.78;5107361;28;19994;-68
2022/02/03 03:45:20;;;;;;;;;;;;;;;3.53;74.04;100652.13;5099218;28;19923;-68
2022/02/03 03:47:46;;;;;;;;;;;;;;;3.50;74.18;100651.44;5102076;28;19916;-68
2022/02/03 03:50:14;;;;;;;;;;;;;;;3.48;74.13;100655.97;5090547;28;19928;-68
2022/02/03 03:52:50;;;;;;;;;;;;;;;3.46;74.22;100655.19;5105051;28;19912;-67
2022/02/03 04:43:07;;;;;;;;;;;;;;;3.07;72.35;100721.75;5100728;28;20002;-66
2022/02/03 04:46:19;;;;;;;;;;;;;;;3.01;72.26;100713.25;5112482;28;19961;-66
2022/02/03 05:00:22;;;;;;;;;;;;;;;3.04;69.10;100721.91;5103852;28;19916;-66
2022/02/03 05:02:52;;;;;;;;;;;;;;;2.99;69.08;100712.44;5102942;28;20010;-66
2022/02/03 05:08:27;;;;;;;;;;;;;;;3.06;68.04;100727.13;5098128;28;19915;-67
2022/02/03 06:04:16;;;;;;;;;;;;;;;2.95;65.91;100820.38;5098397;28;19911;-69
2022/02/03 06:07:18;;;;;;;;;;;;;;;2.96;65.84;100823.91;5094597;28;20296;-68
2022/02/03 06:20:39;;;;;;;;;;;;;;;2.98;65.63;100865.28;5088932;28;19965;-66
2022/02/03 06:20:42;;;;;;;;;;;;;;;3.04;65.98;100867.63;5099022;28;19919;-66
2022/02/03 06:23:14;;;;;;;;;;;;;;;3.09;66.10;100864.75;5099239;28;19916;-66
2022/02/03 06:28:07;;;;;;;;;;;;;;;2.94;67.07;100879.59;5106603;28;20825;-66
2022/02/03 06:30:33;;;;;;;;;;;;;;;2.99;66.92;100887.31;5090310;28;20025;-66
2022/02/03 06:32:58;;;;;;;;;;;;;;;3.00;66.83;100887.22;5090942;28;19919;-65
2022/02/03 06:35:23;;;;;;;;;;;;;;;3.02;67.35;100895.09;5098714;28;19911;-66
2022/02/03 06:37:48;;;;;;;;;;;;;;;3.02;67.71;100903.06;5111696;28;19978;-65
2022/02/03 06:40:14;;;;;;;;;;;;;;;2.93;68.38;100893.75;5106206;28;19916;-65
2022/02/03 06:42:39;;;;;;;;;;;;;;;2.87;68.79;100906.44;5102104;28;19919;-66
2022/02/03 06:47:48;;;;;;;;;;;;;;;2.89;69.09;100908.09;5097955;28;19916;-66
2022/02/03 06:50:20;;;;;;;;;;;;;;;2.81;69.51;100910.25;5096225;28;19923;-66
2022/02/03 06:55:23;;;;;;;;;;;;;;;2.81;70.36;100918.19;5095241;28;19912;-65
2022/02/03 07:00:21;;;;;;;;;;;;;;;2.73;70.80;100922.97;5098040;28;19919;-66
2022/02/03 07:02:49;;;;;;;;;;;;;;;2.79;70.88;100921.81;5095439;28;19927;-66
2022/02/03 07:05:15;;;;;;;;;;;;;;;2.74;71.32;100921.19;5091901;28;19915;-65
2022/02/03 07:07:41;;;;;;;;;;;;;;;2.70;71.48;100928.41;5098759;28;20284;-65
2022/02/03 07:10:08;;;;;;;;;;;;;;;2.94;70.97;100931.72;5098775;28;20006;-65
2022/02/03 07:12:33;;;;;;;;;;;;;;;2.98;70.57;100931.50;5095906;28;19918;-66
2022/02/03 07:15:00;;;;;;;;;;;;;;;2.91;71.19;100931.84;5101827;28;19911;-66
2022/02/03 07:17:26;;;;;;;;;;;;;;;2.91;71.60;100932.72;5097826;28;19923;-65
2022/02/03 07:19:54;;;;;;;;;;;;;;;2.92;71.34;100931.78;5090760;28;19911;-65
2022/02/03 07:22:19;;;;;;;;;;;;;;;3.04;70.80;100944.47;5089324;28;19916;-65
2022/02/03 07:24:45;;;;;;;;;;;;;;;3.00;70.71;100942.03;5092826;28;20006;-67
2022/02/03 07:27:11;;;;;;;;;;;;;;;3.01;70.91;100949.91;5103533;28;19954;-68
2022/02/03 07:29:36;;;;;;;;;;;;;;;3.01;71.17;100954.34;5097925;28;19916;-68
2022/02/03 07:32:02;;;;;;;;;;;;;;;3.10;70.40;100952.13;5096102;28;19963;-68
2022/02/03 07:34:27;;;;;;;;;;;;;;;3.22;69.01;100956.81;5093403;28;20279;-69
2022/02/03 07:36:53;;;;;;;;;;;;;;;3.28;69.44;100953.00;5098703;28;20346;-69
2022/02/03 07:39:18;;;;;;;;;;;;;;;3.31;68.92;100960.81;5096043;28;19961;-69
2022/02/03 07:41:43;;;;;;;;;;;;;;;3.32;68.96;100965.22;5093522;28;19920;-67
2022/02/03 07:44:11;;;;;;;;;;;;;;;3.36;69.61;100972.94;5106263;28;19911;-69
2022/02/03 07:46:36;;;;;;;;;;;;;;;3.36;69.38;100961.47;5100294;28;19911;-69
2022/02/03 07:49:02;;;;;;;;;;;;;;;3.41;69.15;100965.63;5094584;28;19912;-69
2022/02/03 07:51:28;;;;;;;;;;;;;;;3.44;68.89;100959.28;5096121;28;20002;-69
2022/02/03 07:53:53;;;;;;;;;;;;;;;3.51;68.62;100960.75;5103154;28;19961;-68
2022/02/03 07:56:19;;;;;;;;;;;;;;;3.65;67.77;100959.09;5101916;28;20415;-69
2022/02/03 07:58:44;;;;;;;;;;;;;;;3.70;67.29;100972.13;5097945;28;19938;-69
2022/02/03 08:01:10;;;;;;;;;;;;;;;3.74;67.58;100974.56;5098283;28;19916;-70
2022/02/03 08:03:40;;;;;;;;;;;;;;;3.77;67.65;100987.69;5092753;28;19918;-68
2022/02/03 08:06:08;;;;;;;;;;;;;;;3.81;67.49;100991.91;5089125;28;19912;-69
2022/02/03 08:08:42;;;;;;;;;;;;;;;3.93;66.60;100993.06;5097969;28;19916;-69
2022/02/03 08:11:12;;;;;;;;;;;;;;;3.93;66.74;100995.72;5102245;28;19919;-69
2022/02/03 08:13:48;;;;;;;;;;;;;;;4.04;66.23;100993.41;5105299;28;19912;-69
2022/02/03 08:16:21;;;;;;;;;;;;;;;4.09;65.92;100996.69;5089285;28;20262;-69
2022/02/03 08:18:51;;;;;;;;;;;;;;;4.15;65.92;100997.25;5095786;28;19915;-69
2022/02/03 08:21:18;;;;;;;;;;;;;;;4.18;66.30;101004.19;5102637;28;19916;-69
2022/02/03 08:31:22;;;;;;;;;;;;;;;4.36;65.12;100998.78;5101316;28;20029;-70
2022/02/03 08:33:51;;;;;;;;;;;;;;;4.43;63.76;101007.31;5089471;28;19923;-69
2022/02/03 08:36:16;;;;;;;;;;;;;;;4.47;63.26;100998.25;5100819;28;19920;-69
2022/02/03 08:41:06;;;;;;;;;;;;;;;4.75;62.12;101003.84;5102698;28;19943;-67
2022/02/03 08:43:33;;;;;;;;;;;;;;;4.77;61.31;101009.91;5103018;28;20006;-66
2022/02/03 08:46:00;;;;;;;;;;;;;;;4.75;61.72;101006.50;5111077;28;19965;-67
2022/02/03 08:48:25;;;;;;;;;;;;;;;4.85;60.75;101021.00;5103063;28;19911;-66
2022/02/03 08:50:51;;;;;;;;;;;;;;;4.78;61.65;101018.75;5102640;28;20364;-67
2022/02/03 09:54:36;;;;;;;;;;;;;;;5.76;52.48;101048.72;5093324;28;19915;-67
2022/02/03 10:02:18;;;;;;;;;;;;;;;5.89;51.56;101045.31;5103679;28;19919;-66
2022/02/03 10:07:16;;;;;;;;;;;;;;;6.05;50.73;101051.47;5104326;28;20288;-68
2022/02/03 10:09:42;;;;;;;;;;;;;;;6.06;50.83;101042.53;5090972;28;19923;-67
2022/02/03 10:12:09;;;;;;;;;;;;;;;6.17;50.81;101053.44;5093947;28;19916;-66
2022/02/03 10:14:38;;;;;;;;;;;;;;;6.23;49.63;101042.41;5107960;28;20072;-67
2022/02/03 10:17:05;;;;;;;;;;;;;;;6.38;50.09;101053.97;5102422;28;19937;-70
2022/02/03 10:19:51;;;;;;;;;;;;;;;6.43;49.38;101049.25;5093968;28;19915;-69
2022/02/03 10:22:17;;;;;;;;;;;;;;;6.51;48.44;101039.84;5107116;28;19915;-69
2022/02/03 10:24:46;;;;;;;;;;;;;;;6.57;49.10;101039.47;5106222;28;19916;-70
2022/02/03 10:27:22;;;;;;;;;;;;;;;6.60;47.75;101033.97;5093182;28;20245;-70
2022/02/03 10:29:47;;;;;;;;;;;;;;;6.63;48.60;101038.25;5094854;28;19920;-69
2022/02/03 10:32:13;;;;;;;;;;;;;;;6.62;48.89;101039.19;5102573;28;19961;-70
2022/02/03 10:34:42;;;;;;;;;;;;;;;6.64;48.20;101039.94;5101536;28;19911;-69
2022/02/03 10:37:37;;;;;;;;;;;;;;;6.65;47.29;101039.84;5100872;28;20276;-69
2022/02/03 10:40:10;;;;;;;;;;;;;;;6.67;47.96;101045.97;5106711;28;20284;-67
2022/02/03 10:50:37;;;;;;;;;;;;;;;6.86;46.40;101038.56;5110374;28;19923;-68
2022/02/03 10:53:38;;;;;;;;;;;;;;;7.01;46.59;101039.44;5105875;28;19911;-67
2022/02/03 10:56:21;;;;;;;;;;;;;;;6.99;45.73;101033.34;5090554;28;19973;-67
2022/02/03 11:09:55;;;;;;;;;;;;;;;7.43;44.33;101019.88;5095746;28;20054;-66
2022/02/03 11:12:24;;;;;;;;;;;;;;;7.41;44.49;101016.47;5090707;28;20018;-66
2022/02/03 11:14:49;;;;;;;;;;;;;;;7.51;44.15;101018.41;5106656;28;19916;-67
2022/02/03 11:17:16;;;;;;;;;;;;;;;7.55;44.73;101003.09;5092501;28;19915;-67
2022/02/03 11:19:47;;;;;;;;;;;;;;;7.57;44.65;101015.38;5091565;28;19975;-70
2022/02/03 11:22:19;;;;;;;;;;;;;;;7.64;44.27;101018.50;5101332;28;19911;-70
2022/02/03 11:24:50;;;;;;;;;;;;;;;7.58;44.65;101008.22;5095277;28;20372;-70
2022/02/03 11:27:37;;;;;;;;;;;;;;;7.59;44.57;101000.13;5091705;28;19927;-70
2022/02/03 11:33:24;;;;;;;;;;;;;;;7.69;43.86;100997.69;5067049;28;20387;-67
2022/02/03 11:41:37;;;;;;;;;;;;;;;7.65;43.69;101001.53;5042268;28;20365;-69
2022/02/03 12:03:38;;;;;;;;;;;;;;;7.81;43.33;101008.44;5096337;28;19912;-71
2022/02/03 12:19:20;;;;;;;;;;;;;;;7.89;41.69;100997.25;5097440;28;20014;-69
2022/02/03 12:27:50;;;;;;;;;;;;;;;8.12;41.45;101000.09;5087993;28;20432;-70
2022/02/03 12:30:27;;;;;;;;;;;;;;;8.17;42.25;100992.66;5096977;28;19920;-68
2022/02/03 12:38:28;;;;;;;;;;;;;;;8.17;41.86;101008.69;5104195;28;20068;-70
2022/02/03 12:40:57;;;;;;;;;;;;;;;8.42;40.05;101000.72;5112250;28;19911;-68
2022/02/03 12:43:29;;;;;;;;;;;;;;;8.34;40.13;101003.09;5101238;28;19912;-69
2022/02/03 12:45:55;;;;;;;;;;;;;;;8.34;40.45;101011.09;5103242;28;20660;-69
2022/02/03 12:48:28;;;;;;;;;;;;;;;8.29;40.89;101002.53;5104445;28;19912;-69
2022/02/03 12:50:54;;;;;;;;;;;;;;;8.49;39.79;101001.19;5095199;28;19915;-70
2022/02/03 12:53:20;;;;;;;;;;;;;;;8.39;40.83;101010.78;5104852;28;19916;-68
2022/02/03 12:55:50;;;;;;;;;;;;;;;8.30;40.26;100998.91;5096454;28;19923;-66
2022/02/03 12:58:18;;;;;;;;;;;;;;;8.41;39.16;101011.53;5101137;28;19919;-67
2022/02/03 13:00:48;;;;;;;;;;;;;;;8.33;39.88;101000.50;5102949;28;20330;-67
2022/02/03 13:03:14;;;;;;;;;;;;;;;8.30;40.23;101008.72;5110859;28;20346;-65
2022/02/03 13:05:43;;;;;;;;;;;;;;;8.27;40.98;101006.28;5106670;28;20379;-66
2022/02/03 13:08:10;;;;;;;;;;;;;;;8.29;40.83;101007.88;5099548;28;19923;-66
2022/02/03 13:10:38;;;;;;;;;;;;;;;8.40;39.99;101007.16;5099262;28;19919;-67
2022/02/03 13:13:20;;;;;;;;;;;;;;;8.35;41.03;101014.63;5093545;28;19915;-67
2022/02/03 13:15:45;;;;;;;;;;;;;;;8.36;40.86;101013.66;5092555;28;19916;-67
2022/02/03 13:18:18;;;;;;;;;;;;;;;8.39;40.37;101016.97;5095905;28;20111;-68
2022/02/03 13:21:07;;;;;;;;;;;;;;;8.37;40.85;101023.41;5106376;28;19947;-68
2022/02/03 13:23:37;;;;;;;;;;;;;;;8.36;40.52;101024.38;5103502;28;19919;-68
2022/02/03 13:26:12;;;;;;;;;;;;;;;8.37;40.86;101031.41;5097155;28;19919;-66
2022/02/03 13:31:18;;;;;;;;;;;;;;;8.36;41.04;101014.53;5099968;28;19923;-68
2022/02/03 13:33:52;;;;;;;;;;;;;;;8.34;40.88;101016.44;5101549;28;19916;-66
2022/02/03 13:36:24;;;;;;;;;;;;;;;8.32;41.26;101012.16;5096862;28;19925;-66
2022/02/03 13:39:02;;;;;;;;;;;;;;;8.42;40.64;101021.28;5099652;28;19915;-67
2022/02/03 13:41:29;;;;;;;;;;;;;;;8.52;40.01;101017.03;5111943;28;19982;-67
2022/02/03 13:43:55;;;;;;;;;;;;;;;8.40;40.29;101023.19;5099206;28;19912;-66
2022/02/03 13:46:25;;;;;;;;;;;;;;;8.53;39.89;101018.72;5091152;28;19923;-68
2022/02/03 13:48:51;;;;;;;;;;;;;;;8.37;40.04;101012.69;5100666;28;19912;-68
2022/02/03 13:51:17;;;;;;;;;;;;;;;8.30;40.62;101014.09;5100202;28;19976;-67
2022/02/03 13:53:59;;;;;;;;;;;;;;;8.28;40.73;101021.34;5100331;28;19915;-67
2022/02/03 14:29:24;;;;;;;;;;;;;;;8.32;40.83;100991.63;5107285;28;19964;-69
2022/02/03 14:32:00;;;;;;;;;;;;;;;8.14;41.75;100995.53;5091546;28;20399;-67
2022/02/03 14:34:31;;;;;;;;;;;;;;;8.10;41.63;100999.34;5107548;28;19915;-67
2022/02/03 14:39:59;;;;;;;;;;;;;;;8.02;42.11;101008.81;5063042;28;20053;-68
2022/02/03 14:42:29;;;;;;;;;;;;;;;7.95;42.08;101002.19;5102613;28;20552;-67
2022/02/03 14:44:54;;;;;;;;;;;;;;;7.90;42.06;100998.97;5108554;28;19915;-68
2022/02/03 14:47:22;;;;;;;;;;;;;;;7.86;42.26;101000.97;5090070;28;20399;-68
2022/02/03 14:49:47;;;;;;;;;;;;;;;7.83;42.22;101005.69;5096267;28;19931;-68
2022/02/03 14:52:24;;;;;;;;;;;;;;;7.94;42.29;101008.50;5099799;28;19912;-68
2022/02/03 15:00:20;;;;;;;;;;;;;;;8.06;42.50;101015.69;5105872;28;19957;-67
2022/02/03 15:02:45;;;;;;;;;;;;;;;7.97;43.32;101014.47;5081528;28;19943;-67
2022/02/03 15:05:21;;;;;;;;;;;;;;;7.93;43.13;101012.13;5095960;28;19958;-69
2022/02/03 15:07:46;;;;;;;;;;;;;;;7.79;44.14;101017.50;5108006;28;19919;-68
2022/02/03 15:10:40;;;;;;;;;;;;;;;7.67;44.43;101013.81;5090587;28;19923;-68
2022/02/03 15:13:10;;;;;;;;;;;;;;;7.60;44.68;101015.16;5102250;28;19919;-66
2022/02/03 15:15:36;;;;;;;;;;;;;;;7.63;44.70;101024.78;5097428;28;19912;-67
2022/02/03 15:18:02;;;;;;;;;;;;;;;7.60;44.91;101019.63;5091551;28;20011;-66
2022/02/03 15:20:27;;;;;;;;;;;;;;;7.58;45.04;101016.22;5104426;28;19934;-67
2022/02/03 15:22:53;;;;;;;;;;;;;;;7.48;45.17;101012.44;5091114;28;20411;-66
2022/02/03 15:25:19;;;;;;;;;;;;;;;7.44;45.25;101014.44;5102728;28;19923;-67
2022/02/03 15:27:44;;;;;;;;;;;;;;;7.36;45.26;101024.75;5105927;28;19915;-67
2022/02/03 15:30:11;;;;;;;;;;;;;;;7.32;46.54;101023.22;5100123;28;19973;-68
2022/02/03 15:32:41;;;;;;;;;;;;;;;7.26;46.96;101020.97;5091706;28;20458;-70
2022/02/03 15:35:11;;;;;;;;;;;;;;;7.18;47.40;101025.91;5107039;28;19923;-68
2022/02/03 15:37:36;;;;;;;;;;;;;;;7.08;48.16;101032.75;5105754;28;20314;-69
2022/02/03 15:40:07;;;;;;;;;;;;;;;7.00;48.08;101035.06;5100197;28;19912;-69
2022/02/03 15:42:38;;;;;;;;;;;;;;;6.87;49.10;101036.78;5099254;28;19911;-70
2022/02/03 15:45:05;;;;;;;;;;;;;;;6.83;49.44;101040.56;5093015;28;20292;-69
2022/02/03 15:47:45;;;;;;;;;;;;;;;6.76;49.11;101029.41;5087329;28;19912;-68
2022/02/03 16:19:15;;;;;;;;;;;;;;;5.80;52.25;101027.16;5102664;28;19919;-67
2022/02/03 16:22:05;;;;;;;;;;;;;;;5.73;52.54;101028.47;5092361;28;19912;-67
2022/02/03 16:24:41;;;;;;;;;;;;;;;5.60;52.94;101015.94;5091001;28;19918;-68
2022/02/03 16:51:56;;;;;;;;;;;;;;;4.62;56.30;101029.31;5095481;28;19942;-70
2022/02/03 16:54:21;;;;;;;;;;;;;;;4.54;56.53;101034.16;5091827;28;19912;-69
2022/02/03 16:56:51;;;;;;;;;;;;;;;4.45;57.02;101034.66;5104512;28;20014;-69
2022/02/03 16:59:16;;;;;;;;;;;;;;;4.36;57.15;101041.28;5103379;28;20311;-69
2022/02/03 17:01:42;;;;;;;;;;;;;;;4.30;57.68;101040.75;5095456;28;19912;-69
2022/02/03 17:04:07;;;;;;;;;;;;;;;4.24;58.13;101043.69;5105148;28;20396;-69
2022/02/03 17:06:32;;;;;;;;;;;;;;;4.14;58.28;101034.47;5102192;28;19912;-69
2022/02/03 17:08:58;;;;;;;;;;;;;;;4.06;58.39;101040.16;5105761;28;19916;-69
2022/02/03 17:11:23;;;;;;;;;;;;;;;4.03;58.59;101040.31;5100805;28;19923;-68
2022/02/03 17:13:49;;;;;;;;;;;;;;;3.97;58.80;101031.81;5100653;28;19911;-69
2022/02/03 17:16:17;;;;;;;;;;;;;;;3.89;58.91;101026.00;5109085;28;19911;-69
2022/02/03 17:18:42;;;;;;;;;;;;;;;3.85;59.01;101030.63;5100816;28;20010;-69
2022/02/03 17:21:08;;;;;;;;;;;;;;;3.79;59.17;101035.38;5100668;28;20007;-69
2022/02/03 17:23:33;;;;;;;;;;;;;;;3.71;59.48;101029.59;5105922;28;19956;-69
2022/02/03 17:26:14;;;;;;;;;;;;;;;3.67;59.85;101033.28;5095580;28;19911;-69
2022/02/03 17:28:56;;;;;;;;;;;;;;;3.59;60.03;101017.78;5091739;28;19924;-68
2022/02/03 18:11:52;;;;;;;;;;;;;;;2.72;64.21;101032.50;5105746;28;20010;-66
2022/02/03 18:19:49;;;;;;;;;;;;;;;2.54;64.92;101028.00;5107348;28;19916;-69
2022/02/03 18:30:45;;;;;;;;;;;;;;;2.38;66.24;101020.81;5094167;28;19939;-68
2022/02/03 18:34:07;;;;;;;;;;;;;;;2.33;66.73;101023.66;5094042;28;19922;-67
2022/02/03 18:36:10;;;;;;;;;;;;;;;2.30;66.97;101027.25;5090307;28;19918;-67
2022/02/03 18:49:55;;;;;;;;;;;;;;;2.15;67.75;100998.81;5102084;28;20426;-69
2022/02/03 18:57:55;;;;;;;;;;;;;;;2.05;68.63;101000.16;5102569;28;19930;-68
2022/02/03 19:12:04;;;;;;;;;;;;;;;2.01;69.83;100993.28;5096817;28;20334;-69
2022/02/03 19:22:37;;;;;;;;;;;;;;;2.07;70.45;100981.56;5096392;28;19919;-68
2022/02/03 19:57:08;;;;;;;;;;;;;;;2.67;68.97;100975.38;5096327;28;19922;-68
2022/02/03 20:00:35;;;;;;;;;;;;;;;2.70;69.17;100968.13;5101223;28;20387;-68
2022/02/03 20:07:23;;;;;;;;;;;;;;;2.82;68.29;100962.28;5108028;28;19965;-67
2022/02/03 20:10:00;;;;;;;;;;;;;;;2.84;68.01;100962.22;5102443;28;19924;-67
2022/02/03 20:12:26;;;;;;;;;;;;;;;2.84;67.80;100960.41;5097453;28;19912;-67
2022/02/03 20:14:51;;;;;;;;;;;;;;;2.90;67.63;100972.53;5097398;28;20372;-68
2022/02/03 20:17:19;;;;;;;;;;;;;;;2.92;67.88;100960.06;5088987;28;19915;-68
2022/02/03 20:19:45;;;;;;;;;;;;;;;2.93;67.21;100959.97;5092944;28;19981;-67
2022/02/03 20:22:11;;;;;;;;;;;;;;;2.95;67.42;100958.13;5099170;28;20006;-67
2022/02/03 20:24:36;;;;;;;;;;;;;;;2.99;67.16;100950.88;5108194;28;19915;-67
2022/02/03 20:27:02;;;;;;;;;;;;;;;2.99;67.32;100949.09;5095392;28;19912;-67
2022/02/03 20:29:27;;;;;;;;;;;;;;;2.99;67.33;100945.59;5099702;28;19912;-67
2022/02/03 20:31:52;;;;;;;;;;;;;;;2.97;67.41;100929.75;5096098;28;19915;-67
2022/02/03 20:34:18;;;;;;;;;;;;;;;3.00;67.29;100934.91;5109008;28;19938;-67
2022/02/03 20:36:43;;;;;;;;;;;;;;;2.96;66.96;100932.50;5097228;28;19922;-67
2022/02/03 20:39:08;;;;;;;;;;;;;;;3.04;66.65;100935.66;5106659;28;19927;-68
2022/02/03 20:41:33;;;;;;;;;;;;;;;3.07;66.97;100943.44;5107599;28;19916;-68
2022/02/03 20:43:59;;;;;;;;;;;;;;;3.07;66.47;100941.66;5096139;28;19911;-68
2022/02/03 20:46:25;;;;;;;;;;;;;;;3.10;66.24;100940.66;5103576;28;19988;-68
2022/02/03 20:48:50;;;;;;;;;;;;;;;3.09;66.54;100945.09;5109971;28;19916;-68
2022/02/03 20:51:17;;;;;;;;;;;;;;;3.13;66.34;100944.00;5093620;28;19915;-68
2022/02/03 20:53:43;;;;;;;;;;;;;;;3.10;66.23;100933.59;5106109;28;19912;-68
2022/02/03 20:56:09;;;;;;;;;;;;;;;3.12;66.10;100938.78;5114226;28;19912;-68
2022/02/03 20:58:34;;;;;;;;;;;;;;;3.14;66.12;100944.88;5094443;28;19912;-68
2022/02/03 21:01:07;;;;;;;;;;;;;;;3.15;66.03;100931.56;5095347;28;19915;-68
2022/02/03 21:03:40;;;;;;;;;;;;;;;3.15;65.73;100925.38;5109622;28;19919;-68
2022/02/03 21:06:09;;;;;;;;;;;;;;;3.19;65.53;100925.16;5092128;28;20445;-68
2022/02/03 21:08:35;;;;;;;;;;;;;;;3.25;65.31;100924.00;5101331;28;19924;-68
2022/02/03 21:11:01;;;;;;;;;;;;;;;3.23;65.25;100917.94;5103718;28;19961;-68
2022/02/03 21:13:27;;;;;;;;;;;;;;;3.26;65.08;100918.63;5108528;28;19916;-68
2022/02/03 21:15:54;;;;;;;;;;;;;;;3.29;64.71;100917.66;5100053;28;20353;-68
2022/02/03 21:18:19;;;;;;;;;;;;;;;3.30;64.98;100922.00;5092011;28;19918;-68
2022/02/03 21:20:46;;;;;;;;;;;;;;;3.29;65.01;100920.28;5103718;28;19999;-66
2022/02/03 21:23:11;;;;;;;;;;;;;;;3.28;64.98;100915.91;5098268;28;19984;-67
2022/02/03 21:25:41;;;;;;;;;;;;;;;3.27;65.37;100906.25;5103421;28;19915;-66
2022/02/03 21:28:11;;;;;;;;;;;;;;;3.27;65.05;100909.78;5101072;28;19920;-67
2022/02/03 21:30:37;;;;;;;;;;;;;;;3.25;65.54;100908.97;5098138;28;19923;-66
2022/02/03 21:33:03;;;;;;;;;;;;;;;3.28;65.42;100913.25;5099506;28;19923;-66
2022/02/03 21:35:29;;;;;;;;;;;;;;;3.28;65.43;100911.47;5113016;28;19974;-67
2022/02/03 21:37:55;;;;;;;;;;;;;;;3.27;65.28;100908.91;5105624;28;19935;-67
2022/02/03 21:40:20;;;;;;;;;;;;;;;3.26;65.20;100905.38;5107815;28;19919;-67
2022/02/03 21:42:47;;;;;;;;;;;;;;;3.28;65.05;100915.91;5107204;28;20276;-67
2022/02/03 21:45:14;;;;;;;;;;;;;;;3.29;64.77;100917.66;5100633;28;20368;-67
2022/02/03 21:47:39;;;;;;;;;;;;;;;3.31;64.85;100907.81;5103365;28;19923;-67
2022/02/03 21:50:05;;;;;;;;;;;;;;;3.33;64.54;100919.22;5097565;28;20485;-67
2022/02/03 21:52:37;;;;;;;;;;;;;;;3.33;64.48;100911.25;5105445;28;19912;-67
2022/02/03 21:55:03;;;;;;;;;;;;;;;3.34;64.52;100903.22;5094480;28;19915;-67
2022/02/03 21:57:29;;;;;;;;;;;;;;;3.34;64.51;100908.53;5094438;28;20007;-67
2022/02/03 21:59:55;;;;;;;;;;;;;;;3.37;64.16;100897.78;5094380;28;20357;-67
2022/02/03 22:02:21;;;;;;;;;;;;;;;3.41;63.66;100893.16;5091252;28;20006;-67
2022/02/03 22:04:46;;;;;;;;;;;;;;;3.40;63.85;100889.69;5092481;28;20027;-67
2022/02/03 22:07:12;;;;;;;;;;;;;;;3.44;63.49;100888.59;5094743;28;20272;-67
2022/02/03 22:09:39;;;;;;;;;;;;;;;3.49;63.53;100886.56;5094724;28;19912;-67
2022/02/03 22:12:05;;;;;;;;;;;;;;;3.52;63.29;100893.50;5099867;28;19911;-67
2022/02/03 22:14:31;;;;;;;;;;;;;;;3.48;63.44;100884.84;5101487;28;20272;-67
2022/02/03 22:16:58;;;;;;;;;;;;;;;3.49;63.24;100880.41;5112002;28;19918;-67
2022/02/03 22:19:24;;;;;;;;;;;;;;;3.49;63.19;100881.28;5100201;28;19976;-67
2022/02/03 22:22:09;;;;;;;;;;;;;;;3.49;63.09;100883.06;5091875;28;19916;-67
2022/02/03 22:24:45;;;;;;;;;;;;;;;3.48;63.02;100870.75;5100900;28;19911;-67
2022/02/03 22:27:33;;;;;;;;;;;;;;;3.53;63.15;100876.66;5109457;28;20413;-67
2022/02/03 22:43:55;;;;;;;;;;;;;;;3.52;63.30;100865.19;5102124;28;19918;-69
2022/02/03 22:46:53;;;;;;;;;;;;;;;3.51;63.36;100876.72;5106953;28;19994;-67
2022/02/03 22:49:09;;;;;;;;;;;;;;;3.55;63.10;100878.28;5096348;28;19957;-67
2022/02/03 22:51:36;;;;;;;;;;;;;;;3.52;62.92;100867.00;5102166;28;20403;-67
2022/02/03 22:54:04;;;;;;;;;;;;;;;3.53;62.66;100866.03;5092969;28;20280;-67
2022/02/03 22:56:30;;;;;;;;;;;;;;;3.60;62.49;100875.41;5106220;28;19918;-66
2022/02/03 22:59:37;;;;;;;;;;;;;;;3.55;62.56;100869.50;5108823;28;19963;-67
2022/02/03 23:01:52;;;;;;;;;;;;;;;3.52;63.30;100865.19;5104412;28;20359;-67
2022/02/03 23:04:18;;;;;;;;;;;;;;;3.51;62.96;100854.69;5090054;28;19923;-67
2022/02/03 23:06:44;;;;;;;;;;;;;;;3.49;63.17;100860.06;5101353;28;19922;-67
2022/02/03 23:09:35;;;;;;;;;;;;;;;3.47;63.18;100856.63;5089234;28;19939;-67
2022/02/03 23:20:02;;;;;;;;;;;;;;;3.48;62.73;100847.72;5101049;28;19923;-67
2022/02/03 23:22:28;;;;;;;;;;;;;;;3.48;62.52;100845.06;5090750;28;19955;-67
2022/02/03 23:24:54;;;;;;;;;;;;;;;3.46;62.52;100841.66;5096159;28;19915;-67
2022/02/03 23:30:05;;;;;;;;;;;;;;;3.49;62.13;100840.63;5108882;28;19922;-68
2022/02/03 23:32:31;;;;;;;;;;;;;;;3.48;62.19;100842.41;5091923;28;20025;-68
2022/02/03 23:35:07;;;;;;;;;;;;;;;3.48;62.32;100836.28;5099762;28;19963;-67
2022/02/03 23:37:37;;;;;;;;;;;;;;;3.45;62.33;100844.38;5092192;28;20010;-67
2022/02/03 23:40:09;;;;;;;;;;;;;;;3.46;62.16;100828.41;5098844;28;19923;-67
2022/02/03 23:43:21;;;;;;;;;;;;;;;3.46;62.45;100827.53;5097028;28;19916;-69
